createdAt,value
2022-12-08T00:00:29.036Z,93.74
2022-12-08T00:05:49.872Z,93.73
2022-12-08T00:10:51.985Z,93.39
2022-12-08T00:16:00.765Z,93.32
2022-12-08T00:21:03.156Z,93.09
2022-12-08T00:26:05.573Z,92.98
2022-12-08T00:31:10.451Z,93.02
2022-12-08T00:36:14.626Z,92.46
2022-12-08T00:41:39.964Z,92.50
2022-12-08T00:46:42.498Z,91.72
2022-12-08T00:51:44.824Z,91.39
2022-12-08T00:56:46.971Z,91.43
2022-12-08T01:01:49.161Z,91.19
2022-12-08T01:06:51.596Z,90.84
2022-12-08T01:11:53.705Z,91.10
2022-12-08T01:16:55.880Z,91.62
2022-12-08T01:21:58.083Z,91.80
2022-12-08T01:27:00.163Z,92.18
2022-12-08T01:32:02.483Z,93.06
2022-12-08T01:37:04.570Z,93.69
2022-12-08T01:42:10.198Z,94.26
2022-12-08T01:47:12.373Z,94.61
2022-12-08T01:52:20.563Z,94.90
2022-12-08T01:57:34.027Z,95.25
2022-12-08T02:02:49.615Z,95.54
2022-12-08T02:07:52.264Z,95.19
2022-12-08T02:12:58.164Z,95.82
2022-12-08T02:18:19.744Z,95.99
2022-12-08T02:23:45.378Z,96.31
2022-12-08T02:29:02.567Z,96.52
2022-12-08T02:34:10.643Z,96.44
2022-12-08T02:39:54.312Z,96.21
2022-12-08T02:45:11.902Z,95.84
2022-12-08T02:50:15.649Z,94.62
2022-12-08T02:55:28.064Z,94.34
2022-12-08T03:00:53.539Z,93.67
2022-12-08T03:06:01.523Z,93.33
2022-12-08T03:11:20.410Z,92.81
2022-12-08T03:16:27.428Z,92.27
2022-12-08T03:21:32.920Z,91.76
2022-12-08T03:26:43.773Z,91.30
2022-12-08T03:31:56.146Z,91.03
2022-12-08T03:37:00.960Z,90.73
2022-12-08T03:42:03.091Z,90.33
2022-12-08T03:47:05.233Z,89.66
2022-12-08T03:52:07.304Z,89.75
2022-12-08T03:57:09.464Z,89.55
2022-12-08T04:02:11.601Z,89.58
2022-12-08T04:07:13.738Z,89.38
2022-12-08T04:12:15.888Z,89.18
2022-12-08T04:17:17.958Z,89.26
2022-12-08T04:22:20.090Z,89.28
2022-12-08T04:27:22.262Z,88.92
2022-12-08T04:32:24.336Z,88.75
2022-12-08T04:37:27.819Z,88.55
2022-12-08T04:42:30.004Z,88.45
2022-12-08T04:47:32.274Z,88.05
2022-12-08T04:52:34.699Z,87.78
2022-12-08T04:57:36.841Z,87.73
2022-12-08T05:02:39.277Z,87.23
2022-12-08T05:07:41.409Z,87.41
2022-12-08T05:12:43.552Z,87.66
2022-12-08T05:17:45.678Z,87.68
2022-12-08T05:22:47.977Z,87.74
2022-12-08T05:27:50.150Z,87.36
2022-12-08T05:32:56.657Z,87.53
2022-12-08T05:37:58.984Z,87.27
2022-12-08T05:43:01.122Z,87.16
2022-12-08T05:48:03.417Z,87.25
2022-12-08T05:53:05.715Z,87.17
2022-12-08T05:58:13.704Z,86.98
2022-12-08T06:03:18.602Z,86.48
2022-12-08T06:08:20.827Z,86.72
2022-12-08T06:13:23.024Z,86.86
2022-12-08T06:18:32.809Z,86.87
2022-12-08T06:23:35.559Z,86.56
2022-12-08T06:28:38.097Z,86.45
2022-12-08T06:33:40.492Z,86.37
2022-12-08T06:38:43.942Z,86.11
2022-12-08T06:43:46.546Z,85.88
2022-12-08T06:48:50.749Z,85.78
2022-12-08T06:53:52.963Z,85.44
2022-12-08T06:58:55.262Z,85.36
2022-12-08T07:03:57.461Z,85.48
2022-12-08T07:08:59.640Z,85.00
2022-12-08T07:14:01.831Z,84.94
2022-12-08T07:19:03.957Z,84.77
2022-12-08T07:24:06.333Z,84.72
2022-12-08T07:29:10.360Z,84.73
2022-12-08T07:34:13.096Z,84.86
2022-12-08T07:39:15.426Z,84.83
2022-12-08T07:44:17.753Z,85.06
2022-12-08T07:49:19.867Z,84.78
2022-12-08T07:54:22.077Z,84.08
2022-12-08T07:59:24.565Z,83.03
2022-12-08T08:04:26.776Z,82.12
2022-12-08T08:09:28.897Z,81.83
2022-12-08T08:14:31.154Z,80.81
2022-12-08T08:19:33.255Z,79.25
2022-12-08T08:24:37.239Z,78.20
2022-12-08T08:29:42.478Z,77.23
2022-12-08T08:34:44.595Z,77.36
2022-12-08T08:39:46.749Z,76.63
2022-12-08T08:44:48.915Z,75.63
2022-12-08T08:49:51.036Z,74.86
2022-12-08T08:54:53.145Z,75.26
2022-12-08T08:59:55.323Z,74.26
2022-12-08T09:04:57.524Z,73.51
2022-12-08T09:10:01.909Z,73.58
2022-12-08T09:15:05.781Z,73.37
2022-12-08T09:20:08.558Z,73.93
2022-12-08T09:25:10.698Z,74.97
2022-12-08T09:30:13.113Z,75.02
2022-12-08T09:35:15.316Z,74.69
2022-12-08T09:40:20.201Z,75.73
2022-12-08T09:45:24.746Z,75.75
2022-12-08T09:50:37.972Z,75.73
2022-12-08T09:55:48.774Z,74.84
2022-12-08T10:00:51.155Z,74.34
2022-12-08T10:06:10.970Z,73.83
2022-12-08T10:11:24.621Z,73.92
2022-12-08T10:16:42.327Z,72.62
2022-12-08T10:21:45.236Z,72.08
2022-12-08T10:26:47.625Z,72.35
2022-12-08T10:31:49.778Z,72.37
2022-12-08T10:36:58.135Z,72.60
2022-12-08T10:42:02.801Z,72.20
2022-12-08T10:47:13.430Z,71.25
2022-12-08T10:52:25.299Z,70.41
2022-12-08T10:57:27.415Z,69.92
2022-12-08T11:02:29.757Z,70.15
2022-12-08T11:07:32.062Z,67.77
2022-12-08T11:12:36.210Z,66.13
2022-12-08T11:17:41.533Z,66.92
2022-12-08T11:22:45.763Z,66.10
2022-12-08T11:27:50.404Z,67.08
2022-12-08T11:33:00.078Z,67.35
2022-12-08T11:38:20.510Z,67.33
2022-12-08T11:43:48.651Z,67.10
2022-12-08T11:49:05.953Z,67.26
2022-12-08T11:54:17.748Z,66.14
2022-12-08T11:59:26.429Z,66.77
2022-12-08T12:05:02.348Z,65.47
2022-12-08T12:10:23.052Z,64.98
2022-12-08T12:15:46.564Z,64.33
2022-12-08T12:20:51.651Z,64.08
2022-12-08T12:26:02.563Z,63.81
2022-12-08T12:31:16.318Z,64.86
2022-12-08T12:36:18.792Z,64.74
2022-12-08T12:41:28.058Z,64.47
2022-12-08T12:46:38.335Z,64.53
2022-12-08T12:51:47.764Z,64.34
2022-12-08T12:56:53.488Z,63.45
2022-12-08T13:01:56.688Z,63.15
2022-12-08T13:07:00.005Z,62.58
2022-12-08T13:12:10.467Z,68.19
2022-12-08T13:17:16.536Z,69.91
2022-12-08T13:22:46.738Z,71.05
2022-12-08T13:27:54.101Z,72.59
2022-12-08T13:33:18.479Z,72.26
2022-12-08T13:38:26.496Z,71.97
2022-12-08T13:44:20.102Z,68.89
2022-12-08T13:51:15.964Z,66.90
2022-12-08T13:55:26.857Z,67.40
2022-12-08T14:00:13.842Z,66.20
2022-12-08T14:05:20.393Z,65.88
2022-12-08T14:10:32.201Z,66.78
2022-12-08T14:15:38.171Z,67.38
2022-12-08T14:21:12.220Z,67.85
2022-12-08T14:26:06.597Z,68.11
2022-12-08T14:31:09.152Z,71.98
2022-12-08T14:36:15.807Z,73.10
2022-12-08T14:41:27.867Z,74.33
2022-12-08T14:46:30.171Z,75.37
2022-12-08T14:51:33.350Z,75.87
2022-12-08T14:56:43.439Z,75.32
2022-12-08T15:01:48.807Z,74.96
2022-12-08T15:06:59.470Z,74.28
2022-12-08T15:12:07.538Z,74.27
2022-12-08T15:17:30.181Z,74.53
2022-12-08T15:22:32.477Z,74.44
2022-12-08T15:27:42.368Z,74.45
2022-12-08T15:32:52.840Z,74.64
2022-12-08T15:37:54.934Z,74.26
2022-12-08T15:42:57.072Z,73.15
2022-12-08T15:47:59.175Z,72.40
2022-12-08T15:53:01.326Z,71.60
2022-12-08T15:58:51.841Z,71.92
2022-12-08T16:09:06.346Z,72.03
2022-12-08T16:15:22.923Z,71.16
2022-12-08T16:19:36.361Z,70.96
2022-12-08T16:24:38.433Z,71.04
2022-12-08T16:29:46.974Z,71.40
2022-12-08T16:34:50.202Z,71.50
2022-12-08T16:39:54.798Z,71.30
2022-12-08T16:44:56.928Z,73.57
2022-12-08T16:49:59.099Z,74.41
2022-12-08T16:55:01.654Z,75.47
2022-12-08T17:00:07.436Z,76.75
2022-12-08T17:05:13.949Z,78.23
2022-12-08T17:10:19.280Z,77.96
2022-12-08T17:15:24.216Z,77.67
2022-12-08T17:20:28.418Z,77.04
2022-12-08T17:25:30.607Z,77.91
2022-12-08T17:30:32.722Z,77.29
2022-12-08T17:35:35.988Z,76.14
2022-12-08T17:40:38.180Z,76.48
2022-12-08T17:45:44.776Z,76.03
2022-12-08T17:50:47.927Z,75.10
2022-12-08T17:55:54.987Z,75.52
2022-12-08T18:00:57.138Z,74.55
2022-12-08T18:06:08.168Z,75.04
2022-12-08T18:11:21.144Z,75.18
2022-12-08T18:16:26.851Z,75.37
2022-12-08T18:21:29.302Z,75.36
2022-12-08T18:26:31.939Z,75.16
2022-12-08T18:31:34.207Z,75.31
2022-12-08T18:36:36.391Z,75.20
2022-12-08T18:41:38.537Z,74.91
2022-12-08T18:46:40.803Z,75.04
2022-12-08T18:51:43.960Z,74.50
2022-12-08T18:56:46.076Z,74.00
2022-12-08T19:01:48.647Z,73.40
2022-12-08T19:06:51.425Z,74.08
2022-12-08T19:11:53.614Z,73.60
2022-12-08T19:16:57.647Z,73.54
2022-12-08T19:21:59.849Z,73.81
2022-12-08T19:27:05.865Z,73.92
2022-12-08T19:32:08.054Z,74.03
2022-12-08T19:37:12.586Z,73.68
2022-12-08T19:42:37.496Z,72.89
2022-12-08T19:47:40.166Z,73.88
2022-12-08T19:52:43.140Z,75.11
2022-12-08T19:57:45.227Z,75.35
2022-12-08T20:02:47.845Z,75.37
2022-12-08T20:07:50.709Z,76.60
2022-12-08T20:13:12.858Z,75.66
2022-12-08T20:18:16.097Z,75.58
2022-12-08T20:23:20.295Z,75.60
2022-12-08T20:28:23.763Z,76.19
2022-12-08T20:33:26.342Z,75.87
2022-12-08T20:38:29.206Z,75.94
2022-12-08T20:43:31.321Z,76.50
2022-12-08T20:48:33.714Z,77.33
2022-12-08T20:53:35.802Z,76.60
2022-12-08T20:58:37.954Z,78.29
2022-12-08T21:03:40.491Z,76.53
2022-12-08T21:08:42.994Z,77.16
2022-12-08T21:13:45.720Z,77.26
2022-12-08T21:18:47.871Z,76.38
2022-12-08T21:23:54.198Z,76.89
2022-12-08T21:28:58.906Z,77.29
2022-12-08T21:34:02.174Z,77.76
2022-12-08T21:39:11.220Z,77.43
2022-12-08T21:44:15.604Z,79.54
2022-12-08T21:49:20.828Z,79.77
2022-12-08T21:54:23.037Z,79.47
2022-12-08T21:59:25.191Z,79.79
2022-12-08T22:04:28.039Z,79.46
2022-12-08T22:09:30.547Z,79.26
2022-12-08T22:14:32.989Z,78.79
2022-12-08T22:19:35.548Z,78.15
2022-12-08T22:24:37.846Z,78.65
2022-12-08T22:29:39.975Z,78.88
2022-12-08T22:34:42.204Z,80.03
2022-12-08T22:39:44.382Z,79.03
2022-12-08T22:44:46.737Z,77.68
2022-12-08T22:49:49.285Z,79.02
2022-12-08T22:54:51.366Z,78.82
2022-12-08T22:59:53.724Z,78.49
2022-12-08T23:04:56.881Z,79.45
2022-12-08T23:10:02.217Z,79.47
2022-12-08T23:15:05.061Z,78.98
2022-12-08T23:20:08.553Z,78.77
2022-12-08T23:25:10.880Z,78.45
2022-12-08T23:30:14.008Z,79.06
2022-12-08T23:35:16.230Z,79.57
2022-12-08T23:40:18.348Z,80.01
2022-12-08T23:45:20.475Z,80.42
2022-12-08T23:50:22.971Z,80.61
2022-12-08T23:55:25.153Z,80.49
